sensor_id;sensor_type;location;lat;lon;timestamp;pressure;altitude;pressure_sealevel;temperature;humidity
16148;BME280;8179;59.364;18.018;2024-01-30T00:00:08;102285.81;;;3.77;100.00
16148;BME280;8179;59.364;18.018;2024-01-30T00:02:35;102287.88;;;3.75;100.00
16148;BME280;8179;59.364;18.018;2024-01-30T00:05:02;102279.53;;;3.70;100.00
16148;BME280;8179;59.364;18.018;2024-01-30T00:07:31;102283.47;;;3.68;100.00
16148;BME280;8179;59.364;18.018;2024-01-30T00:09:58;102282.34;;;3.62;100.00
16148;BME280;8179;59.364;18.018;2024-01-30T00:12:25;102281.72;;;3.60;100.00
16148;BME280;8179;59.364;18.018;2024-01-30T00:14:53;102291.19;;;3.56;100.00
16148;BME280;8179;59.364;18.018;2024-01-30T00:17:20;102289.06;;;3.51;100.00
16148;BME280;8179;59.364;18.018;2024-01-30T00:19:47;102294.00;;;3.48;100.00
16148;BME280;8179;59.364;18.018;2024-01-30T00:22:14;102296.97;;;3.38;100.00
16148;BME280;8179;59.364;18.018;2024-01-30T00:24:42;102294.31;;;3.23;100.00
16148;BME280;8179;59.364;18.018;2024-01-30T00:27:09;102287.75;;;3.26;100.00
16148;BME280;8179;59.364;18.018;2024-01-30T00:29:36;102291.56;;;3.32;100.00
16148;BME280;8179;59.364;18.018;2024-01-30T00:32:04;102288.00;;;3.31;100.00
16148;BME280;8179;59.364;18.018;2024-01-30T00:34:31;102294.25;;;3.32;100.00
16148;BME280;8179;59.364;18.018;2024-01-30T00:36:58;102284.16;;;3.19;100.00
16148;BME280;8179;59.364;18.018;2024-01-30T00:39:25;102284.78;;;3.21;100.00
16148;BME280;8179;59.364;18.018;2024-01-30T00:41:53;102286.47;;;3.22;100.00
16148;BME280;8179;59.364;18.018;2024-01-30T00:44:20;102285.19;;;3.18;100.00
16148;BME280;8179;59.364;18.018;2024-01-30T00:46:47;102283.25;;;3.12;100.00
16148;BME280;8179;59.364;18.018;2024-01-30T00:49:14;102288.81;;;3.10;100.00
16148;BME280;8179;59.364;18.018;2024-01-30T00:51:41;102273.25;;;3.06;100.00
16148;BME280;8179;59.364;18.018;2024-01-30T00:54:08;102281.31;;;3.06;100.00
16148;BME280;8179;59.364;18.018;2024-01-30T00:56:35;102260.03;;;2.89;100.00
16148;BME280;8179;59.364;18.018;2024-01-30T00:59:03;102288.88;;;3.02;100.00
16148;BME280;8179;59.364;18.018;2024-01-30T01:01:30;102280.00;;;3.01;100.00
16148;BME280;8179;59.364;18.018;2024-01-30T01:03:57;102288.06;;;3.01;100.00
16148;BME280;8179;59.364;18.018;2024-01-30T01:06:24;102298.16;;;2.99;100.00
16148;BME280;8179;59.364;18.018;2024-01-30T01:08:51;102305.41;;;2.99;100.00
16148;BME280;8179;59.364;18.018;2024-01-30T01:11:18;102297.53;;;2.97;100.00
16148;BME280;8179;59.364;18.018;2024-01-30T01:13:45;102289.38;;;2.91;100.00
16148;BME280;8179;59.364;18.018;2024-01-30T01:16:13;102279.66;;;2.90;100.00
16148;BME280;8179;59.364;18.018;2024-01-30T01:18:41;102289.75;;;2.88;100.00
16148;BME280;8179;59.364;18.018;2024-01-30T01:21:07;102290.13;;;2.85;100.00
16148;BME280;8179;59.364;18.018;2024-01-30T01:23:34;102270.00;;;2.81;100.00
16148;BME280;8179;59.364;18.018;2024-01-30T01:26:01;102264.19;;;2.77;100.00
16148;BME280;8179;59.364;18.018;2024-01-30T01:28:28;102272.25;;;2.77;100.00
16148;BME280;8179;59.364;18.018;2024-01-30T01:30:55;102279.19;;;2.71;100.00
16148;BME280;8179;59.364;18.018;2024-01-30T01:33:32;102279.56;;;2.68;100.00
16148;BME280;8179;59.364;18.018;2024-01-30T01:35:59;102284.47;;;2.65;100.00
16148;BME280;8179;59.364;18.018;2024-01-30T01:38:28;102296.25;;;2.64;100.00
16148;BME280;8179;59.364;18.018;2024-01-30T01:40:55;102286.31;;;2.64;100.00
16148;BME280;8179;59.364;18.018;2024-01-30T01:43:22;102272.91;;;2.64;100.00
16148;BME280;8179;59.364;18.018;2024-01-30T01:45:49;102275.38;;;2.66;100.00
16148;BME280;8179;59.364;18.018;2024-01-30T01:48:16;102251.97;;;2.45;100.00
16148;BME280;8179;59.364;18.018;2024-01-30T01:50:44;102274.38;;;2.52;100.00
16148;BME280;8179;59.364;18.018;2024-01-30T01:53:12;102299.22;;;2.54;100.00
16148;BME280;8179;59.364;18.018;2024-01-30T01:55:39;102289.53;;;2.45;100.00
16148;BME280;8179;59.364;18.018;2024-01-30T01:58:07;102278.06;;;2.36;100.00
16148;BME280;8179;59.364;18.018;2024-01-30T02:00:36;102274.16;;;2.39;100.00
16148;BME280;8179;59.364;18.018;2024-01-30T02:03:08;102235.19;;;2.13;100.00
16148;BME280;8179;59.364;18.018;2024-01-30T02:05:37;102281.66;;;2.29;100.00
16148;BME280;8179;59.364;18.018;2024-01-30T02:08:06;102251.38;;;2.05;100.00
16148;BME280;8179;59.364;18.018;2024-01-30T02:10:33;102255.22;;;2.03;100.00
16148;BME280;8179;59.364;18.018;2024-01-30T02:13:01;102282.75;;;2.19;100.00
16148;BME280;8179;59.364;18.018;2024-01-30T02:15:28;102283.78;;;2.18;100.00
16148;BME280;8179;59.364;18.018;2024-01-30T02:17:55;102278.41;;;2.18;100.00
16148;BME280;8179;59.364;18.018;2024-01-30T02:20:24;102225.34;;;1.91;100.00
16148;BME280;8179;59.364;18.018;2024-01-30T02:22:54;102275.06;;;2.16;100.00
16148;BME280;8179;59.364;18.018;2024-01-30T02:25:30;102263.88;;;2.13;100.00
16148;BME280;8179;59.364;18.018;2024-01-30T02:27:57;102267.56;;;2.12;100.00
16148;BME280;8179;59.364;18.018;2024-01-30T02:30:24;102255.53;;;2.08;100.00
16148;BME280;8179;59.364;18.018;2024-01-30T02:32:51;102266.06;;;2.09;100.00
16148;BME280;8179;59.364;18.018;2024-01-30T02:35:18;102264.59;;;2.07;100.00
16148;BME280;8179;59.364;18.018;2024-01-30T02:37:45;102274.13;;;2.09;100.00
16148;BME280;8179;59.364;18.018;2024-01-30T02:40:13;102266.25;;;2.08;100.00
16148;BME280;8179;59.364;18.018;2024-01-30T02:42:40;102274.31;;;2.08;100.00
16148;BME280;8179;59.364;18.018;2024-01-30T02:45:09;102274.75;;;2.11;100.00
16148;BME280;8179;59.364;18.018;2024-01-30T02:47:36;102273.94;;;2.11;100.00
16148;BME280;8179;59.364;18.018;2024-01-30T02:50:04;102279.50;;;2.09;100.00
16148;BME280;8179;59.364;18.018;2024-01-30T02:52:31;102283.38;;;2.07;100.00
16148;BME280;8179;59.364;18.018;2024-01-30T02:54:58;102274.84;;;2.03;100.00
16148;BME280;8179;59.364;18.018;2024-01-30T02:57:26;102277.19;;;2.06;100.00
16148;BME280;8179;59.364;18.018;2024-01-30T02:59:53;102279.50;;;2.09;100.00
16148;BME280;8179;59.364;18.018;2024-01-30T03:02:20;102280.13;;;2.11;100.00
16148;BME280;8179;59.364;18.018;2024-01-30T03:04:47;102273.78;;;2.12;100.00
16148;BME280;8179;59.364;18.018;2024-01-30T03:07:14;102277.09;;;2.14;100.00
16148;BME280;8179;59.364;18.018;2024-01-30T03:09:42;102270.72;;;2.15;100.00
16148;BME280;8179;59.364;18.018;2024-01-30T03:12:08;102273.41;;;2.15;100.00
16148;BME280;8179;59.364;18.018;2024-01-30T03:14:36;102278.41;;;2.18;100.00
16148;BME280;8179;59.364;18.018;2024-01-30T03:17:03;102279.41;;;2.17;100.00
16148;BME280;8179;59.364;18.018;2024-01-30T03:19:30;102272.19;;;2.18;100.00
16148;BME280;8179;59.364;18.018;2024-01-30T03:21:57;102276.09;;;2.15;100.00
16148;BME280;8179;59.364;18.018;2024-01-30T03:24:24;102266.72;;;2.11;100.00
16148;BME280;8179;59.364;18.018;2024-01-30T03:26:51;102279.59;;;2.16;100.00
16148;BME280;8179;59.364;18.018;2024-01-30T03:29:18;102280.81;;;2.13;100.00
16148;BME280;8179;59.364;18.018;2024-01-30T03:31:47;102270.78;;;2.07;100.00
16148;BME280;8179;59.364;18.018;2024-01-30T03:34:13;102289.19;;;2.10;100.00
16148;BME280;8179;59.364;18.018;2024-01-30T03:36:40;102288.56;;;2.08;100.00
16148;BME280;8179;59.364;18.018;2024-01-30T03:39:07;102280.16;;;1.88;100.00
16148;BME280;8179;59.364;18.018;2024-01-30T03:41:33;102224.72;;;1.43;100.00
16148;BME280;8179;59.364;18.018;2024-01-30T03:44:00;102298.91;;;1.74;100.00
16148;BME280;8179;59.364;18.018;2024-01-30T03:46:27;102297.53;;;1.78;100.00
16148;BME280;8179;59.364;18.018;2024-01-30T03:48:56;102298.38;;;1.78;100.00
16148;BME280;8179;59.364;18.018;2024-01-30T03:51:23;102300.22;;;1.78;100.00
16148;BME280;8179;59.364;18.018;2024-01-30T03:53:50;102297.53;;;1.78;100.00
16148;BME280;8179;59.364;18.018;2024-01-30T03:56:17;102289.13;;;1.81;100.00
16148;BME280;8179;59.364;18.018;2024-01-30T03:58:44;102283.41;;;1.84;100.00
16148;BME280;8179;59.364;18.018;2024-01-30T04:01:13;102285.06;;;1.85;100.00
16148;BME280;8179;59.364;18.018;2024-01-30T04:03:40;102297.47;;;1.86;100.00
16148;BME280;8179;59.364;18.018;2024-01-30T04:06:11;102292.81;;;1.80;100.00
16148;BME280;8179;59.364;18.018;2024-01-30T04:08:38;102290.97;;;1.57;100.00
16148;BME280;8179;59.364;18.018;2024-01-30T04:11:06;102300.03;;;1.56;100.00
16148;BME280;8179;59.364;18.018;2024-01-30T04:13:33;102301.69;;;1.57;100.00
16148;BME280;8179;59.364;18.018;2024-01-30T04:16:01;102303.88;;;1.54;100.00
16148;BME280;8179;59.364;18.018;2024-01-30T04:18:29;102264.16;;;1.26;100.00
16148;BME280;8179;59.364;18.018;2024-01-30T04:20:56;102308.84;;;1.42;100.00
16148;BME280;8179;59.364;18.018;2024-01-30T04:23:24;102303.97;;;1.37;100.00
16148;BME280;8179;59.364;18.018;2024-01-30T04:25:51;102299.16;;;1.33;100.00
16148;BME280;8179;59.364;18.018;2024-01-30T04:28:18;102306.63;;;1.15;100.00
16148;BME280;8179;59.364;18.018;2024-01-30T04:30:45;102303.63;;;1.09;100.00
16148;BME280;8179;59.364;18.018;2024-01-30T04:33:12;102302.44;;;1.12;100.00
16148;BME280;8179;59.364;18.018;2024-01-30T04:35:39;102298.09;;;1.11;100.00
16148;BME280;8179;59.364;18.018;2024-01-30T04:38:06;102308.34;;;1.07;100.00
16148;BME280;8179;59.364;18.018;2024-01-30T04:40:34;102300.34;;;0.99;100.00
16148;BME280;8179;59.364;18.018;2024-01-30T04:43:01;102293.69;;;0.87;100.00
16148;BME280;8179;59.364;18.018;2024-01-30T04:45:28;102304.53;;;0.94;100.00
16148;BME280;8179;59.364;18.018;2024-01-30T04:47:55;102294.97;;;0.99;100.00
16148;BME280;8179;59.364;18.018;2024-01-30T04:50:22;102298.78;;;1.05;100.00
16148;BME280;8179;59.364;18.018;2024-01-30T04:52:49;102295.06;;;1.14;100.00
16148;BME280;8179;59.364;18.018;2024-01-30T04:55:16;102297.25;;;1.10;100.00
16148;BME280;8179;59.364;18.018;2024-01-30T04:57:45;102296.09;;;1.05;100.00
16148;BME280;8179;59.364;18.018;2024-01-30T05:00:12;102285.53;;;1.12;100.00
16148;BME280;8179;59.364;18.018;2024-01-30T05:02:39;102292.03;;;1.17;100.00
16148;BME280;8179;59.364;18.018;2024-01-30T05:05:06;102288.56;;;1.08;100.00
16148;BME280;8179;59.364;18.018;2024-01-30T05:07:33;102285.69;;;1.10;100.00
16148;BME280;8179;59.364;18.018;2024-01-30T05:10:00;102271.53;;;1.01;100.00
16148;BME280;8179;59.364;18.018;2024-01-30T05:12:28;102281.34;;;1.09;100.00
16148;BME280;8179;59.364;18.018;2024-01-30T05:14:57;102277.47;;;1.12;100.00
16148;BME280;8179;59.364;18.018;2024-01-30T05:17:24;102268.16;;;1.07;100.00
16148;BME280;8179;59.364;18.018;2024-01-30T05:19:51;102291.00;;;1.18;100.00
16148;BME280;8179;59.364;18.018;2024-01-30T05:22:18;102288.34;;;1.18;100.00
16148;BME280;8179;59.364;18.018;2024-01-30T05:24:45;102286.16;;;1.22;100.00
16148;BME280;8179;59.364;18.018;2024-01-30T05:27:12;102296.50;;;1.25;100.00
16148;BME280;8179;59.364;18.018;2024-01-30T05:29:39;102301.88;;;1.25;100.00
16148;BME280;8179;59.364;18.018;2024-01-30T05:32:08;102297.72;;;1.22;100.00
16148;BME280;8179;59.364;18.018;2024-01-30T05:34:36;102265.97;;;1.03;100.00
16148;BME280;8179;59.364;18.018;2024-01-30T05:37:03;102291.69;;;1.20;100.00
16148;BME280;8179;59.364;18.018;2024-01-30T05:39:31;102292.81;;;1.26;100.00
16148;BME280;8179;59.364;18.018;2024-01-30T05:41:58;102258.13;;;1.01;100.00
16148;BME280;8179;59.364;18.018;2024-01-30T05:44:25;102313.56;;;1.32;100.00
16148;BME280;8179;59.364;18.018;2024-01-30T05:46:52;102300.03;;;1.25;100.00
16148;BME280;8179;59.364;18.018;2024-01-30T05:49:20;102302.88;;;1.24;100.00
16148;BME280;8179;59.364;18.018;2024-01-30T05:51:47;102294.25;;;1.14;100.00
16148;BME280;8179;59.364;18.018;2024-01-30T05:54:14;102305.28;;;1.10;100.00
16148;BME280;8179;59.364;18.018;2024-01-30T05:56:41;102275.72;;;0.96;100.00
16148;BME280;8179;59.364;18.018;2024-01-30T05:59:08;102296.09;;;1.13;100.00
16148;BME280;8179;59.364;18.018;2024-01-30T06:01:35;102294.91;;;1.16;100.00
16148;BME280;8179;59.364;18.018;2024-01-30T06:04:03;102292.69;;;1.19;100.00
16148;BME280;8179;59.364;18.018;2024-01-30T06:06:32;102290.00;;;1.19;100.00
16148;BME280;8179;59.364;18.018;2024-01-30T06:08:59;102289.50;;;1.24;100.00
16148;BME280;8179;59.364;18.018;2024-01-30T06:11:26;102296.19;;;1.28;100.00
16148;BME280;8179;59.364;18.018;2024-01-30T06:13:53;102291.66;;;1.28;100.00
16148;BME280;8179;59.364;18.018;2024-01-30T06:16:20;102279.09;;;1.29;100.00
16148;BME280;8179;59.364;18.018;2024-01-30T06:18:48;102277.25;;;1.29;100.00
16148;BME280;8179;59.364;18.018;2024-01-30T06:21:14;102267.41;;;1.22;100.00
16148;BME280;8179;59.364;18.018;2024-01-30T06:23:43;102276.41;;;1.29;100.00
16148;BME280;8179;59.364;18.018;2024-01-30T06:26:10;102282.41;;;1.31;100.00
16148;BME280;8179;59.364;18.018;2024-01-30T06:28:37;102257.69;;;1.21;100.00
16148;BME280;8179;59.364;18.018;2024-01-30T06:31:04;102269.25;;;1.21;100.00
16148;BME280;8179;59.364;18.018;2024-01-30T06:33:31;102251.88;;;1.09;100.00
16148;BME280;8179;59.364;18.018;2024-01-30T06:35:58;102251.53;;;1.12;100.00
16148;BME280;8179;59.364;18.018;2024-01-30T06:38:25;102283.44;;;1.30;100.00
16148;BME280;8179;59.364;18.018;2024-01-30T06:40:53;102241.41;;;0.99;100.00
16148;BME280;8179;59.364;18.018;2024-01-30T06:43:22;102292.94;;;1.32;100.00
16148;BME280;8179;59.364;18.018;2024-01-30T06:45:48;102294.16;;;1.30;100.00
16148;BME280;8179;59.364;18.018;2024-01-30T06:48:17;102292.78;;;1.34;100.00
16148;BME280;8179;59.364;18.018;2024-01-30T06:50:44;102180.31;;;0.64;100.00
16148;BME280;8179;59.364;18.018;2024-01-30T06:53:11;102289.75;;;1.37;100.00
16148;BME280;8179;59.364;18.018;2024-01-30T06:55:38;102287.25;;;1.35;100.00
16148;BME280;8179;59.364;18.018;2024-01-30T06:58:06;102270.91;;;1.22;100.00
16148;BME280;8179;59.364;18.018;2024-01-30T07:00:33;102289.56;;;1.38;100.00
16148;BME280;8179;59.364;18.018;2024-01-30T07:03:00;102235.81;;;1.09;100.00
16148;BME280;8179;59.364;18.018;2024-01-30T07:05:27;102289.38;;;1.40;100.00
16148;BME280;8179;59.364;18.018;2024-01-30T07:07:54;102280.03;;;1.36;100.00
16148;BME280;8179;59.364;18.018;2024-01-30T07:10:21;102282.34;;;1.39;100.00
16148;BME280;8179;59.364;18.018;2024-01-30T07:12:48;102282.03;;;1.42;100.00
16148;BME280;8179;59.364;18.018;2024-01-30T07:15:17;102290.66;;;1.52;100.00
16148;BME280;8179;59.364;18.018;2024-01-30T07:17:45;102287.97;;;1.52;100.00
16148;BME280;8179;59.364;18.018;2024-01-30T07:20:13;102248.06;;;1.34;100.00
16148;BME280;8179;59.364;18.018;2024-01-30T07:22:40;102269.03;;;1.54;100.00
16148;BME280;8179;59.364;18.018;2024-01-30T07:25:07;102257.84;;;1.50;100.00
16148;BME280;8179;59.364;18.018;2024-01-30T07:27:35;102253.13;;;1.52;100.00
16148;BME280;8179;59.364;18.018;2024-01-30T07:30:02;102245.56;;;1.56;100.00
16148;BME280;8179;59.364;18.018;2024-01-30T07:32:31;102253.56;;;1.64;100.00
16148;BME280;8179;59.364;18.018;2024-01-30T07:34:58;102257.72;;;1.67;100.00
16148;BME280;8179;59.364;18.018;2024-01-30T07:37:26;102262.25;;;1.66;100.00
16148;BME280;8179;59.364;18.018;2024-01-30T07:39:54;102277.81;;;1.71;100.00
16148;BME280;8179;59.364;18.018;2024-01-30T07:42:21;102280.94;;;1.74;100.00
16148;BME280;8179;59.364;18.018;2024-01-30T07:44:48;102274.75;;;1.74;100.00
16148;BME280;8179;59.364;18.018;2024-01-30T07:47:15;102245.91;;;1.53;100.00
16148;BME280;8179;59.364;18.018;2024-01-30T07:49:43;102283.44;;;1.76;100.00
16148;BME280;8179;59.364;18.018;2024-01-30T07:52:10;102259.38;;;1.68;100.00
16148;BME280;8179;59.364;18.018;2024-01-30T07:54:40;102256.50;;;1.69;100.00
16148;BME280;8179;59.364;18.018;2024-01-30T07:57:07;102273.03;;;1.81;100.00
16148;BME280;8179;59.364;18.018;2024-01-30T07:59:34;102269.31;;;1.82;100.00
16148;BME280;8179;59.364;18.018;2024-01-30T08:02:01;102272.69;;;1.84;100.00
16148;BME280;8179;59.364;18.018;2024-01-30T08:04:28;102215.91;;;1.57;100.00
16148;BME280;8179;59.364;18.018;2024-01-30T08:06:57;102255.69;;;1.91;100.00
16148;BME280;8179;59.364;18.018;2024-01-30T08:09:24;102257.34;;;1.92;100.00
16148;BME280;8179;59.364;18.018;2024-01-30T08:11:50;102252.16;;;1.91;100.00
16148;BME280;8179;59.364;18.018;2024-01-30T08:14:18;102249.75;;;1.96;100.00
16148;BME280;8179;59.364;18.018;2024-01-30T08:16:45;102255.59;;;2.00;100.00
16148;BME280;8179;59.364;18.018;2024-01-30T08:19:12;102122.03;;;1.20;100.00
16148;BME280;8179;59.364;18.018;2024-01-30T08:21:39;102251.06;;;2.00;100.00
16148;BME280;8179;59.364;18.018;2024-01-30T08:24:08;102243.31;;;2.05;100.00
16148;BME280;8179;59.364;18.018;2024-01-30T08:26:35;102240.06;;;2.10;100.00
16148;BME280;8179;59.364;18.018;2024-01-30T08:29:02;102242.56;;;2.11;100.00
16148;BME280;8179;59.364;18.018;2024-01-30T08:31:29;102226.31;;;2.13;100.00
16148;BME280;8179;59.364;18.018;2024-01-30T08:33:56;102231.78;;;2.19;100.00
16148;BME280;8179;59.364;18.018;2024-01-30T08:36:24;102236.13;;;2.20;100.00
16148;BME280;8179;59.364;18.018;2024-01-30T08:38:51;102239.63;;;2.21;100.00
16148;BME280;8179;59.364;18.018;2024-01-30T08:41:20;102232.94;;;2.17;100.00
16148;BME280;8179;59.364;18.018;2024-01-30T08:43:47;102238.91;;;2.27;100.00
16148;BME280;8179;59.364;18.018;2024-01-30T08:46:17;102240.19;;;2.31;100.00
16148;BME280;8179;59.364;18.018;2024-01-30T08:48:44;102239.66;;;2.36;100.00
16148;BME280;8179;59.364;18.018;2024-01-30T08:51:12;102249.19;;;2.38;100.00
16148;BME280;8179;59.364;18.018;2024-01-30T08:53:41;102241.94;;;2.39;100.00
16148;BME280;8179;59.364;18.018;2024-01-30T08:56:08;102247.91;;;2.49;100.00
16148;BME280;8179;59.364;18.018;2024-01-30T08:58:36;102240.78;;;2.56;100.00
16148;BME280;8179;59.364;18.018;2024-01-30T09:01:04;102244.72;;;2.60;100.00
16148;BME280;8179;59.364;18.018;2024-01-30T09:03:31;102246.03;;;2.64;100.00
16148;BME280;8179;59.364;18.018;2024-01-30T09:05:58;102238.25;;;2.69;100.00
16148;BME280;8179;59.364;18.018;2024-01-30T09:08:25;102114.59;;;1.97;100.00
16148;BME280;8179;59.364;18.018;2024-01-30T09:10:52;102246.22;;;2.78;100.00
16148;BME280;8179;59.364;18.018;2024-01-30T09:13:19;102242.13;;;2.82;100.00
16148;BME280;8179;59.364;18.018;2024-01-30T09:15:47;102244.91;;;2.88;100.00
16148;BME280;8179;59.364;18.018;2024-01-30T09:18:14;102226.47;;;2.85;100.00
16148;BME280;8179;59.364;18.018;2024-01-30T09:20:41;102236.75;;;2.96;100.00
16148;BME280;8179;59.364;18.018;2024-01-30T09:23:08;102237.81;;;3.02;100.00
16148;BME280;8179;59.364;18.018;2024-01-30T09:25:35;102227.91;;;3.02;100.00
16148;BME280;8179;59.364;18.018;2024-01-30T09:28:02;102212.25;;;3.06;100.00
16148;BME280;8179;59.364;18.018;2024-01-30T09:30:29;102227.63;;;3.12;100.00
16148;BME280;8179;59.364;18.018;2024-01-30T09:32:57;102223.53;;;3.16;100.00
16148;BME280;8179;59.364;18.018;2024-01-30T09:35:24;102215.47;;;3.16;100.00
16148;BME280;8179;59.364;18.018;2024-01-30T09:37:51;102189.94;;;3.06;100.00
16148;BME280;8179;59.364;18.018;2024-01-30T09:40:18;102218.69;;;3.26;100.00
16148;BME280;8179;59.364;18.018;2024-01-30T09:42:47;102211.88;;;3.30;100.00
16148;BME280;8179;59.364;18.018;2024-01-30T09:45:15;102197.81;;;3.28;100.00
16148;BME280;8179;59.364;18.018;2024-01-30T09:47:44;102178.16;;;3.28;100.00
16148;BME280;8179;59.364;18.018;2024-01-30T09:50:14;102212.22;;;3.42;100.00
16148;BME280;8179;59.364;18.018;2024-01-30T09:52:42;102209.53;;;3.42;100.00
16148;BME280;8179;59.364;18.018;2024-01-30T09:55:10;102202.03;;;3.16;100.00
16148;BME280;8179;59.364;18.018;2024-01-30T09:57:37;102188.19;;;2.98;100.00
16148;BME280;8179;59.364;18.018;2024-01-30T10:00:05;102187.59;;;3.02;100.00
16148;BME280;8179;59.364;18.018;2024-01-30T10:02:34;102191.31;;;3.01;100.00
16148;BME280;8179;59.364;18.018;2024-01-30T10:05:01;102198.53;;;3.01;100.00
16148;BME280;8179;59.364;18.018;2024-01-30T10:07:30;102195.03;;;3.00;100.00
16148;BME280;8179;59.364;18.018;2024-01-30T10:09:57;102195.47;;;2.83;100.00
16148;BME280;8179;59.364;18.018;2024-01-30T10:12:26;102203.25;;;2.78;100.00
16148;BME280;8179;59.364;18.018;2024-01-30T10:14:53;102202.41;;;2.77;100.00
16148;BME280;8179;59.364;18.018;2024-01-30T10:17:20;102163.91;;;2.55;100.00
16148;BME280;8179;59.364;18.018;2024-01-30T10:19:47;102207.19;;;2.82;100.00
16148;BME280;8179;59.364;18.018;2024-01-30T10:22:14;102195.53;;;2.89;100.00
16148;BME280;8179;59.364;18.018;2024-01-30T10:24:43;102189.22;;;2.97;100.00
16148;BME280;8179;59.364;18.018;2024-01-30T10:27:11;102185.75;;;3.03;100.00
16148;BME280;8179;59.364;18.018;2024-01-30T10:29:37;102186.47;;;3.12;100.00
16148;BME280;8179;59.364;18.018;2024-01-30T10:32:05;102161.63;;;3.10;100.00
16148;BME280;8179;59.364;18.018;2024-01-30T10:34:34;102174.19;;;3.24;100.00
16148;BME280;8179;59.364;18.018;2024-01-30T10:37:07;102173.41;;;3.30;100.00
16148;BME280;8179;59.364;18.018;2024-01-30T10:39:39;102174.25;;;3.30;100.00
16148;BME280;8179;59.364;18.018;2024-01-30T10:42:11;102179.25;;;3.34;100.00
16148;BME280;8179;59.364;18.018;2024-01-30T10:44:44;102183.03;;;3.39;100.00
16148;BME280;8179;59.364;18.018;2024-01-30T10:47:18;102175.59;;;3.41;100.00
16148;BME280;8179;59.364;18.018;2024-01-30T10:49:49;102165.94;;;3.47;100.00
16148;BME280;8179;59.364;18.018;2024-01-30T10:52:17;102133.03;;;3.23;100.00
16148;BME280;8179;59.364;18.018;2024-01-30T10:54:44;102154.94;;;3.42;100.00
16148;BME280;8179;59.364;18.018;2024-01-30T10:57:15;102161.06;;;3.57;100.00
16148;BME280;8179;59.364;18.018;2024-01-30T10:59:44;102158.88;;;3.67;100.00
16148;BME280;8179;59.364;18.018;2024-01-30T11:02:14;102152.13;;;3.78;100.00
16148;BME280;8179;59.364;18.018;2024-01-30T11:04:42;102140.16;;;3.87;100.00
16148;BME280;8179;59.364;18.018;2024-01-30T11:07:15;102145.78;;;3.92;100.00
16148;BME280;8179;59.364;18.018;2024-01-30T11:09:49;102122.34;;;3.86;100.00
16148;BME280;8179;59.364;18.018;2024-01-30T11:12:21;102119.91;;;3.91;100.00
16148;BME280;8179;59.364;18.018;2024-01-30T11:14:48;102128.81;;;3.92;100.00
16148;BME280;8179;59.364;18.018;2024-01-30T11:17:17;102125.09;;;3.93;100.00
16148;BME280;8179;59.364;18.018;2024-01-30T11:19:46;102121.63;;;3.99;100.00
16148;BME280;8179;59.364;18.018;2024-01-30T11:22:13;102106.75;;;4.03;100.00
16148;BME280;8179;59.364;18.018;2024-01-30T11:24:40;102066.47;;;3.81;100.00
16148;BME280;8179;59.364;18.018;2024-01-30T11:27:09;102103.84;;;4.04;100.00
16148;BME280;8179;59.364;18.018;2024-01-30T11:29:38;102121.38;;;4.28;100.00
16148;BME280;8179;59.364;18.018;2024-01-30T11:32:08;102111.91;;;4.39;100.00
16148;BME280;8179;59.364;18.018;2024-01-30T11:34:40;102105.69;;;4.38;100.00
16148;BME280;8179;59.364;18.018;2024-01-30T11:37:10;102102.97;;;4.32;100.00
16148;BME280;8179;59.364;18.018;2024-01-30T11:39:40;102093.03;;;4.39;100.00
16148;BME280;8179;59.364;18.018;2024-01-30T11:42:08;102093.47;;;4.43;100.00
16148;BME280;8179;59.364;18.018;2024-01-30T11:44:35;102096.34;;;4.41;100.00
16148;BME280;8179;59.364;18.018;2024-01-30T11:47:04;102076.03;;;4.32;100.00
16148;BME280;8179;59.364;18.018;2024-01-30T11:49:31;102082.88;;;4.34;100.00
16148;BME280;8179;59.364;18.018;2024-01-30T11:51:58;102077.25;;;4.29;100.00
16148;BME280;8179;59.364;18.018;2024-01-30T11:54:25;102085.38;;;4.43;100.00
16148;BME280;8179;59.364;18.018;2024-01-30T11:56:52;102091.63;;;4.50;100.00
16148;BME280;8179;59.364;18.018;2024-01-30T11:59:19;102092.47;;;4.57;100.00
16148;BME280;8179;59.364;18.018;2024-01-30T12:01:47;102079.66;;;4.59;100.00
16148;BME280;8179;59.364;18.018;2024-01-30T12:04:16;102077.56;;;4.61;100.00
16148;BME280;8179;59.364;18.018;2024-01-30T12:06:43;102078.44;;;4.68;100.00
16148;BME280;8179;59.364;18.018;2024-01-30T12:09:10;102076.09;;;4.52;100.00
16148;BME280;8179;59.364;18.018;2024-01-30T12:11:44;102077.13;;;4.51;100.00
16148;BME280;8179;59.364;18.018;2024-01-30T12:14:12;102062.41;;;4.47;100.00
16148;BME280;8179;59.364;18.018;2024-01-30T12:16:39;102070.72;;;4.52;100.00
16148;BME280;8179;59.364;18.018;2024-01-30T12:19:07;102065.78;;;4.68;100.00
16148;BME280;8179;59.364;18.018;2024-01-30T12:21:36;102052.94;;;4.77;100.00
16148;BME280;8179;59.364;18.018;2024-01-30T12:24:03;102057.72;;;4.82;100.00
16148;BME280;8179;59.364;18.018;2024-01-30T12:26:32;102058.34;;;4.90;100.00
16148;BME280;8179;59.364;18.018;2024-01-30T12:28:59;102052.75;;;4.92;100.00
16148;BME280;8179;59.364;18.018;2024-01-30T12:31:27;102052.34;;;4.88;100.00
16148;BME280;8179;59.364;18.018;2024-01-30T12:33:54;102042.81;;;4.92;100.00
16148;BME280;8179;59.364;18.018;2024-01-30T12:36:22;102045.09;;;4.89;100.00
16148;BME280;8179;59.364;18.018;2024-01-30T12:38:51;102048.41;;;4.91;100.00
16148;BME280;8179;59.364;18.018;2024-01-30T12:41:19;102044.88;;;4.90;100.00
16148;BME280;8179;59.364;18.018;2024-01-30T12:43:46;102036.19;;;4.88;100.00
16148;BME280;8179;59.364;18.018;2024-01-30T12:46:17;102019.56;;;4.85;100.00
16148;BME280;8179;59.364;18.018;2024-01-30T12:48:44;102028.31;;;4.87;100.00
16148;BME280;8179;59.364;18.018;2024-01-30T12:51:11;102000.69;;;4.65;100.00